Nearby METAR Reports

 

KMHT - Manchester, New Hampshire, USA
Distance from station: W 16mi, 26km
Updated: Sat, 23-Feb-2019 7:53pm EST
Mostly cloudy
Mostly cloudy
 Wind from calm
Wind: Calm
Temperature: 28°F , -2°C
Dew Point: 18°F , -8°C
Humidity: 64%
Barometer: 30.32 inHg , 1026.8 hPa
Clouds: Mostly cloudy
Visibility: 10 miles , 16 km
Cloud details: Mostly cloudy 25000 ft
2019/02/24 00:53 KMHT 240053Z 00000KT 10SM BKN250 M02/M08 A3032 RMK AO2 SLP286 T10171078
KPSM - Portsmouth/Pease, New Hampshire, USA
Distance from station: ENE 17mi, 27km
Updated: Sat, 23-Feb-2019 7:56pm EST
Mostly cloudy
Mostly cloudy
 Wind from SE
Wind: SE 5 mph , 7 km/h
Temperature: 30°F , -1°C
Wind Chill: 25°F , -4°C
Dew Point: 27°F , -3°C
Humidity: 86%
Barometer: 30.33 inHg , 1027.1 hPa
Clouds: Mostly cloudy
Visibility: 10 miles , 16 km
Cloud details: Mostly cloudy 25000 ft
2019/02/24 00:56 KPSM 240056Z 14004KT 10SM BKN250 M01/M03 A3033 RMK AO2A SLP274 T10091034
 
KASH - Nashua/Boire Fld, New Hampshire, USA
Distance from station: WSW 24mi, 38km
Updated: Sat, 23-Feb-2019 7:56pm EST
Clear
Clear
 Wind from calm
Wind: Calm
Temperature: 27°F , -3°C
Dew Point: 19°F , -7°C
Humidity: 74%
Barometer: 30.34 inHg , 1027.4 hPa
Clouds: Clear
Visibility: 10 miles , 16 km
2019/02/24 00:56 KASH 240056Z 00000KT 10SM CLR M03/M07 A3034 RMK AO2 SLP284 T10281067 $
KDAW - Rochester, New Hampshire, USA
Distance from station: NNE 24mi, 39km
Updated: Sat, 23-Feb-2019 7:51pm EST
Clear
Clear
 Wind from calm
Wind: Calm
Temperature: 30°F , -1°C
Dew Point: 25°F , -4°C
Humidity: 80%
Barometer: 30.32 inHg , 1026.8 hPa
Clouds: Clear
Visibility: 10 miles , 16 km
2019/02/24 00:51 KDAW 240051Z AUTO 00000KT 10SM CLR M01/M04 A3032 RMK AO2 SLP270 T10111044